Rouyn, Canada
Current Conditions -  °F | °C
As of 9:00 AM on Monday 26 Jan 2015 (Local Time) from CYUY Reporting Station
Ice Pellets Ice Pellets  
Wind Chill: -17°   Ceiling: 24000
Heat Index: -17°   Visibility: 15mi
Dew Point: -20°   Wind: 0mph
Humidity: 84%   Direction: NA
Pressure: 30.08"   Gusts: NA
Location:  48.23°N, 79.03°W
Report Text: CYUY 261400Z 00000KT 15SM IC SCT160 BKN240 M27/M29 A3008 RMK AC4CI2 SLP226
Loading
Personal Weather Stations






























Interactive Weather Map New forecast layout! Learn more

10-Day Weather Forecast

Advertisements
Track Severe Weather on mobile